Beatty, Nevada Weather observations

Data are for observation ending at time listed.
 Day   Time    Ave.   Ave.  Ave.  Vector   Max.   Stn.    Total    Solar   Ave.  
  of    of     Air    Rel.  Wind   Wind    Wind   Baro.  Precip.   Rad.    Soil  
Year   Day     Temp.  Hum.  Speed  Dir.    Gust   Pres.                    Temp. 
2014   (PST)    F      %     mph   deg.    mph     mb.     in.     W/m2     F   
------------------------------------------------------------------------------
 107    6:00   54.3    28    3.5    34      7.8   897.7    0.00      40    67.0
 107    6:10   56.9    26    3.5    29      7.4   897.8    0.00      84    67.0
 107    6:20   58.6    24    3.6    36      8.6   897.9    0.00      29    66.9
 107    6:30   59.1    24    4.9    19     12.0   898.0    0.00      31    66.8
 107    6:40   59.4    23    4.1    29      8.7   898.1    0.00      37    66.8
 107    6:50   60.2    22    4.2    26      8.1   898.1    0.00      35    66.8
 107    7:00   61.5    22    3.5    25      7.4   898.0    0.00      47    66.7
 107    7:10   63.0    21    2.7    27      5.8   898.0    0.00      77    66.7
 107    7:20   64.4    20    2.4    59      4.7   897.9    0.00      43    66.7
 107    7:30   65.4    20    2.7    74      5.3   897.9    0.00      87    66.6
 107    7:40   66.2    19    3.1    80      6.0   897.9    0.00     227    66.5
 107    7:50   66.7    19    2.8    72      6.6   897.9    0.00     407    66.5
 107    8:00   67.6    18    2.4    80      5.4   897.8    0.00     431    66.5
 107    8:10   68.3    18    2.3    41      5.0   897.8    0.00     459    66.5
 107    8:20   69.2    17    2.5    34      6.4   897.7    0.00     486    66.4
 107    8:30   70.1    17    1.5    66      4.1   897.7    0.00     505    66.3
 107    8:40   71.0    16    1.5   357      3.5   897.7    0.00     532    66.3
 107    8:50   72.1    15    1.4   234      3.7   897.7    0.00     553    66.3
 107    9:00   72.0    15    2.6   221      6.7   897.7    0.00     572    66.2
 107    9:10   73.3    14    1.9   224      4.5   897.7    0.00     596    66.1
 107    9:20   73.3    14    4.5   220     10.3   897.6    0.00     618    66.1
 107    9:30   73.4    14    5.3   215      9.6   897.6    0.00     636    66.1
 107    9:40   73.8    14    4.9   215      9.0   897.6    0.00     653    66.1
 107    9:50   75.5    13    5.0   189      9.7   897.5    0.00     672    66.1
 107   10:00   76.2    13    3.7   211     11.8   897.4    0.00     688    66.1
 107   10:10   76.7    13    4.3   200      8.1   897.3    0.00     702    66.0
 107   10:20   77.0    13    6.0   213     10.7   897.2    0.00     716    65.9
 107   10:30   77.1    13    7.3   222     12.3   897.1    0.00     729    65.9
 107   10:40   78.0    12    7.3   206     14.3   896.9    0.00     739    65.9
 107   10:50   79.1    12    8.2   211     13.7   896.7    0.00     746    65.9
 107   11:00   79.5    12    8.3   209     15.6   896.7    0.00     748    66.0
 107   11:10   80.3    12    8.6   202     16.7   896.5    0.00     770    66.0
 107   11:20   80.4    12    8.8   206     14.2   896.4    0.00     760    66.1
 107   11:30   80.8    11    8.0   191     14.2   896.3    0.00     741    66.1
 107   11:40   81.5    11    7.5   192     13.7   896.2    0.00     751    66.1
 107   11:50   81.6    11    7.9   187     14.8   896.1    0.00     744    66.2
 107   12:00   81.5    11    8.8   200     17.0   896.0    0.00     722    66.3
 107   12:10   82.2    11    8.8   188     16.9   895.9    0.00     710    66.3
 107   12:20   81.9    11    9.2   175     15.3   895.8    0.00     667    66.4
 107   12:30   82.7    11    8.2   194     14.4   895.6    0.00     680    66.5
 107   12:40   83.3    11    8.9   198     18.5   895.5    0.00     698    66.6
 107   12:50   82.7    11    9.5   197     17.7   895.4    0.00     702    66.7
 107   13:00   83.7    11    8.2   192     23.9   895.4    0.00     729    66.8
 107   13:10   83.3    11   11.2   209     23.8   895.3    0.00     692    66.9
 107   13:20   83.7    11   11.4   208     20.0   895.2    0.00     674    67.0
 107   13:30   82.6    11   14.3   212     27.8   895.0    0.00     602    67.2
 107   13:40   83.0    11   12.6   208     22.9   894.9    0.00     700    67.3
 107   13:50   83.5    11   11.4   207     22.1   894.8    0.00     339    67.4
 107   14:00   84.0    11   12.6   202     24.0   894.7    0.00     398    67.5
 107   14:10   83.6    11   10.4   194     20.6   894.5    0.00     577    67.6
 107   14:20   83.6    10   14.3   214     24.5   894.3    0.00     581    67.8
 107   14:30   83.6    10   11.6   197     24.4   894.1    0.00     560    67.9
 107   14:40   83.2    10   12.5   212     18.4   893.9    0.00     424    68.0
 107   14:50   82.8    10   13.7   213     21.1   893.8    0.00     481    68.2
 107   15:00   82.9    11   10.7   202     22.1   893.7    0.00     494    68.3
 107   15:10   82.6    11   12.5   214     20.2   893.7    0.00     231    68.4
 107   15:20   81.6    12   10.7   210     19.6   893.6    0.00     179    68.5
 107   15:30   82.0    12    9.3   198     17.8   893.6    0.00     228    68.6
 107   15:40   82.5    12    9.2   197     17.3   893.4    0.00     212    68.7
 107   15:50   82.8    12   10.2   200     17.9   893.4    0.00     161    68.8
 107   16:00   83.0    11    8.6   194     16.6   893.4    0.00     121    68.9
 107   16:10   82.4    12   10.6   213     18.6   893.4    0.00      76    69.0
 107   16:20   81.4    12    9.2   200     17.9   893.4    0.00      75    69.1
 107   16:30   81.4    12    9.4   211     17.3   893.3    0.00      78    69.1
 107   16:40   80.8    12   10.2   217     15.9   893.2    0.00      57    69.2
 107   16:50   80.5    12    9.8   214     15.0   893.2    0.00      68    69.3
 107   17:00   80.5    12    9.3   216     17.0   893.1    0.00      84    69.3
 107   17:10   80.5    12    9.8   218     16.0   893.1    0.00      89    69.4
 107   17:20   80.7    12    8.2   214     12.9   893.0    0.00      95    69.5
 107   17:30   80.7    12    9.6   207     18.1   893.0    0.00      79    69.6
 107   17:40   80.4    12   11.4   213     18.1   892.9    0.00      51    69.6
 107   17:50   80.1    12    9.8   212     20.0   893.0    0.00      37    69.7
 107   18:00   79.8    12   10.9   207     19.2   892.9    0.00      26    69.7
 107   18:10   79.4    12   10.7   218     17.6   893.0    0.00      15    69.7
 107   18:20   79.2    12   12.1   217     18.8   893.0    0.00       7    69.8
 107   18:30   78.9    13   11.8   212     19.1   893.0    0.00       1    69.8
 107   18:40   78.4    13    8.7   212     14.3   893.0    0.00       0    69.8
 107   18:50   78.1    13    8.8   210     14.5   893.0    0.00       0    69.8
 107   19:00   77.6    13    9.1   208     17.2   893.1    0.00       0    69.9
 107   19:10   77.5    13    9.3   212     14.6   893.2    0.00       0    69.9
 107   19:20   77.0    13    7.6   210     12.6   893.3    0.00       0    69.9
 107   19:30   76.6    13    7.2   195     13.8   893.5    0.00       0    69.9
 107   19:40   76.7    12    8.3   166     16.4   893.7    0.00       0    69.9
 107   19:50   76.8    12    9.6   164     18.6   893.8    0.00       0    69.9
 107   20:00   76.5    12   10.2   159     19.1   893.8    0.00       0    70.0
 107   20:10   76.6    12    9.1   168     18.6   893.9    0.00       0    70.0
 107   20:20   76.4    12    8.5   158     16.2   893.9    0.00       0    70.0
 107   20:30   76.2    12    7.7   170     20.7   893.9    0.00       0    70.0
 107   20:40   76.0    12   10.7   160     19.1   894.0    0.00       0    70.0
 107   20:50   75.8    12    8.6   164     18.8   894.1    0.00       0    70.0
 107   21:00   75.6    12    8.1   163     17.6   894.1    0.00       0    70.0
 107   21:10   75.7    12    8.8   163     18.0   894.1    0.00       0    70.0
 107   21:20   75.4    12    7.5   162     14.6   894.1    0.00       0    70.0
 107   21:30   75.1    12    7.5   167     15.7   894.0    0.00       0    70.0
 107   21:40   75.1    12    8.7   163     18.8   894.0    0.00       0    70.0
 107   21:50   74.9    12   10.4   160     19.0   893.9    0.00       0    70.0
 107   22:00   74.8    12    9.6   161     23.3   893.9    0.00       0    69.9
 107   22:10   74.6    13    6.6   166     15.5   894.0    0.00       0    69.9
 107   22:20   74.3    13    9.0   162     15.6   893.9    0.00       0    69.9
 107   22:30   74.3    13    8.9   159     16.9   893.9    0.00       0    69.9
 107   22:40   73.9    13    5.6   164     12.6   894.0    0.00       0    69.9
 107   22:50   73.7    13    8.2   161     16.7   894.1    0.00       0    69.8
 107   23:00   74.1    13    9.2   160     18.8   894.2    0.00       0    69.9
 107   23:10   73.8    13    7.6   164     14.6   894.3    0.00       0    69.8
 107   23:20   73.3    13    6.4   168     13.7   894.3    0.00       0    69.8
 107   23:30   73.2    13    7.4   163     15.3   894.3    0.00       0    69.8
 107   23:40   72.8    13    5.7   160     14.9   894.3    0.00       0    69.8
 107   23:50   72.5    14    6.2   158     11.8   894.3    0.00       0    69.8
 108    0:00   72.8    14    8.2   160     15.1   894.4    0.00       0    69.8
 108    0:10   72.9    14    8.5   160     16.2   894.3    0.00       0    69.7
 108    0:20   72.5    15    5.0   167     14.3   894.3    0.00       0    69.7
 108    0:30   71.9    16    4.0   167     12.7   894.2    0.00       0    69.7
 108    0:40   72.1    16    7.0   156     15.3   894.2    0.00       0    69.7
 108    0:50   72.3    16    8.6   159     16.0   894.1    0.00       0    69.7
 108    1:00   72.2    17    5.5   169     12.1   894.0    0.00       0    69.7
 108    1:10   71.5    17    3.7   202      8.5   894.0    0.00       0    69.6
 108    1:20   70.9    18    5.1   202     10.0   894.0    0.00       0    69.6
 108    1:30   70.3    19    5.6   201     11.2   893.9    0.00       0    69.6
 108    1:40   70.1    20    6.1   208     12.3   893.9    0.00       0    69.6
 108    1:50   68.9    21    9.3   220     16.7   894.0    0.00       0    69.5
 108    2:00   67.7    23    9.2   219     17.4   894.1    0.00       0    69.5
 108    2:10   67.0    24    7.4   220     13.8   894.2    0.00       0    69.5
 108    2:20   66.8    24    5.1   230      9.7   894.2    0.00       0    69.5
 108    2:30   66.9    24    4.3   236      9.5   894.4    0.00       0    69.4
 108    2:40   66.4    25    2.9   216      8.6   894.5    0.00       0    69.4
 108    2:50   65.7    25    1.6   168      4.5   894.6    0.00       0    69.4
 108    3:00   65.0    26    0.7   354      2.2   894.5    0.00       0    69.3
 108    3:10   64.0    26    2.5    75      5.4   894.5    0.00       0    69.3
 108    3:20   63.9    26    2.6    48      5.0   894.5    0.00       0    69.3
 108    3:30   63.5    27    2.2   358      3.9   894.5    0.00       0    69.3
 108    3:40   61.9    28    1.7    16      2.6   894.5    0.00       0    69.3
 108    3:50   60.6    30    1.0   356      2.2   894.5    0.00       0    69.3
 108    4:00   59.3    31    0.3   353      1.8   894.5    0.00       0    69.3
 108    4:10   58.9    31    1.1    68      3.3   894.5    0.00       0    69.3
 108    4:20   58.9    31    1.3    54      3.1   894.4    0.00       0    69.2
 108    4:30   57.8    32    1.5    58      3.1   894.3    0.00       0    69.2
 108    4:40   57.4    32    1.1    33      2.6   894.4    0.00       0    69.2
 108    4:50   57.0    33    1.0    18      1.8   894.4    0.00       0    69.2
 108    5:00   56.7    34    0.8   345      2.1   894.3    0.00       0    69.1
 108    5:10   56.7    33    1.4    65      4.5   894.5    0.00       0    69.1
 108    5:20   57.5    33    1.6    68      4.4   894.6    0.00       1    69.1
 108    5:30   58.6    32    1.0    40      3.0   894.7    0.00       5    69.0
 108    5:40   60.5    30    1.6    46      2.9   894.8    0.00      10    69.0
 108    5:50   60.2    31    2.1    65      3.9   894.9    0.00      17    69.0

Return to Beatty, Nevada graphs page.


Western Regional Climate Center,wrcc@dri.edu